Time;durP1;ratioP1;P1;durP2;ratioP2;P2;SDS_P1;SDS_P2;PMS_P1;PMS_P2;Temp;Humidity;BMP_temperature;BMP_pressure;BME280_temperature;BME280_humidity;BME280_pressure;Samples;Min_cycle;Max_cycle;Signal;HPM_P1;HPM_P2
2022/09/26 00:00:04;;;;;;;1.02;0.65;;;21.50;47.00;;;;;;5047640;28;20021;-48
2022/09/26 00:02:37;;;;;;;1.58;0.60;;;21.50;46.90;;;;;;5046350;28;20045;-50
2022/09/26 00:05:04;;;;;;;1.50;0.88;;;21.40;46.90;;;;;;5050074;28;20029;-49
2022/09/26 00:07:29;;;;;;;2.72;0.80;;;21.40;46.90;;;;;;5045553;28;20352;-50
2022/09/26 00:09:56;;;;;;;0.98;0.73;;;21.40;46.90;;;;;;5035446;28;20054;-50
2022/09/26 00:12:21;;;;;;;1.15;0.80;;;21.40;46.90;;;;;;5042671;28;20028;-48
2022/09/26 00:14:47;;;;;;;1.35;0.65;;;21.40;46.90;;;;;;5047738;28;20029;-48
2022/09/26 00:17:13;;;;;;;0.98;0.70;;;21.40;47.00;;;;;;5042726;28;20057;-51
2022/09/26 00:19:39;;;;;;;1.27;0.80;;;21.40;47.00;;;;;;5041400;28;20031;-52
2022/09/26 00:22:05;;;;;;;1.40;0.80;;;21.40;47.00;;;;;;5041681;28;20137;-49
2022/09/26 00:24:31;;;;;;;1.35;0.77;;;21.40;47.10;;;;;;5049771;28;20017;-51
2022/09/26 00:26:56;;;;;;;1.58;0.85;;;21.40;47.10;;;;;;5049146;28;20356;-50
2022/09/26 00:29:22;;;;;;;1.30;0.80;;;21.40;47.20;;;;;;5045408;28;20033;-51
2022/09/26 00:31:48;;;;;;;1.00;0.70;;;21.40;47.20;;;;;;5045002;28;20036;-52
2022/09/26 00:34:17;;;;;;;1.67;0.75;;;21.40;47.20;;;;;;5043593;28;20425;-56
2022/09/26 00:36:43;;;;;;;1.13;0.60;;;21.40;47.20;;;;;;5043176;28;20078;-50
2022/09/26 00:39:11;;;;;;;1.30;0.60;;;21.40;47.20;;;;;;5048541;28;20522;-48
2022/09/26 00:41:37;;;;;;;1.30;0.73;;;21.40;47.20;;;;;;5048985;28;20178;-48
2022/09/26 00:44:33;;;;;;;1.77;0.60;;;21.40;47.20;;;;;;5047767;28;20066;-47
2022/09/26 00:47:00;;;;;;;1.00;0.63;;;21.40;47.20;;;;;;5047392;28;20551;-49
2022/09/26 00:49:33;;;;;;;0.77;0.63;;;21.40;47.30;;;;;;5045010;28;20145;-52
2022/09/26 00:52:06;;;;;;;2.38;0.70;;;21.40;47.20;;;;;;5048392;28;20109;-48
2022/09/26 00:54:35;;;;;;;0.90;0.80;;;21.40;47.30;;;;;;5047321;28;20479;-48
2022/09/26 00:57:06;;;;;;;1.60;0.70;;;21.40;47.20;;;;;;5042933;28;20074;-48
2022/09/26 00:59:40;;;;;;;1.23;0.50;;;21.30;47.20;;;;;;5045491;28;20025;-51
2022/09/26 01:02:08;;;;;;;1.63;0.80;;;21.40;47.30;;;;;;5044699;28;20033;-49
2022/09/26 01:04:37;;;;;;;1.15;0.57;;;21.40;47.20;;;;;;5044827;28;20028;-47
2022/09/26 01:07:09;;;;;;;1.42;0.60;;;21.30;47.20;;;;;;5073078;28;20021;-49
2022/09/26 01:09:36;;;;;;;1.27;1.13;;;21.30;47.20;;;;;;5043305;28;20045;-50
2022/09/26 01:12:05;;;;;;;0.85;0.60;;;21.30;47.20;;;;;;5042684;28;20033;-52
2022/09/26 01:14:33;;;;;;;2.05;0.70;;;21.30;47.20;;;;;;5043670;28;20063;-49
2022/09/26 01:16:59;;;;;;;1.20;0.70;;;21.30;47.20;;;;;;5042340;28;20021;-47
2022/09/26 01:19:54;;;;;;;1.58;0.60;;;21.40;47.30;;;;;;5047097;28;20510;-48
2022/09/26 01:22:57;;;;;;;0.80;0.60;;;21.30;47.20;;;;;;5046601;28;20047;-50
2022/09/26 01:25:32;;;;;;;0.70;0.40;;;21.30;47.30;;;;;;5049893;28;20098;-47
2022/09/26 01:28:30;;;;;;;1.38;0.68;;;21.30;47.40;;;;;;5043169;28;20108;-50
2022/09/26 01:31:22;;;;;;;1.48;0.70;;;21.30;47.40;;;;;;5036967;28;20052;-51
2022/09/26 01:34:16;;;;;;;0.50;0.40;;;21.30;47.40;;;;;;5037000;28;20058;-52
2022/09/26 01:36:45;;;;;;;1.60;0.60;;;21.30;47.40;;;;;;5046920;28;20032;-54
2022/09/26 01:39:35;;;;;;;1.17;0.57;;;21.30;47.50;;;;;;5046496;28;20047;-51
2022/09/26 01:42:22;;;;;;;0.93;0.60;;;21.30;47.50;;;;;;5044978;28;20079;-54
2022/09/26 01:44:58;;;;;;;0.93;0.60;;;21.30;47.50;;;;;;5046462;28;20152;-52
2022/09/26 01:47:34;;;;;;;1.15;0.40;;;21.30;47.50;;;;;;5041831;28;20095;-52
2022/09/26 01:50:29;;;;;;;0.80;0.70;;;21.20;47.50;;;;;;5038857;28;20029;-52
2022/09/26 01:53:21;;;;;;;1.20;0.60;;;21.20;48.10;;;;;;5041543;28;20037;-50
2022/09/26 01:55:53;;;;;;;;;;;21.30;48.20;;;;;;5039217;28;20146;-53
2022/09/26 01:58:51;;;;;;;0.63;0.50;;;21.20;47.50;;;;;;5039374;28;19971;-53
2022/09/26 02:01:20;;;;;;;1.40;0.50;;;21.20;47.50;;;;;;5028210;28;20048;-52
2022/09/26 02:03:52;;;;;;;3.13;0.70;;;21.20;47.60;;;;;;5038556;28;20451;-52
2022/09/26 02:06:41;;;;;;;1.20;0.68;;;21.20;47.60;;;;;;5046389;28;20115;-52
2022/09/26 02:09:15;;;;;;;1.98;0.70;;;21.20;47.60;;;;;;5028363;28;20049;-51
2022/09/26 02:11:44;;;;;;;1.55;0.60;;;21.20;47.70;;;;;;5036363;28;20057;-48
2022/09/26 02:14:20;;;;;;;1.30;0.57;;;21.20;47.70;;;;;;5038644;28;20044;-54
2022/09/26 02:16:49;;;;;;;1.23;0.70;;;21.20;47.70;;;;;;5044303;28;20029;-48
2022/09/26 02:19:25;;;;;;;1.27;0.50;;;21.20;47.70;;;;;;5038334;28;20068;-54
2022/09/26 02:21:52;;;;;;;1.42;0.52;;;21.20;47.70;;;;;;5047886;28;20108;-52
2022/09/26 02:24:18;;;;;;;0.68;0.50;;;21.20;47.60;;;;;;5048498;28;20033;-48
2022/09/26 02:26:44;;;;;;;0.98;0.68;;;21.20;47.60;;;;;;5047028;28;20025;-49
2022/09/26 02:29:13;;;;;;;2.20;0.70;;;21.20;47.60;;;;;;5046793;28;20471;-48
2022/09/26 02:31:47;;;;;;;2.33;0.80;;;21.20;47.50;;;;;;5050893;28;20061;-47
2022/09/26 02:34:14;;;;;;;2.03;0.68;;;21.20;47.50;;;;;;5048951;28;20449;-51
2022/09/26 02:36:40;;;;;;;1.50;0.80;;;21.20;47.50;;;;;;5049078;28;20025;-52
2022/09/26 02:39:08;;;;;;;2.50;0.60;;;21.20;47.50;;;;;;5049193;28;20432;-52
2022/09/26 02:42:12;;;;;;;1.27;0.57;;;21.20;47.40;;;;;;5045059;28;20060;-50
2022/09/26 02:45:04;;;;;;;1.45;0.60;;;21.20;47.40;;;;;;5050061;28;20029;-48
2022/09/26 02:47:43;;;;;;;2.10;0.90;;;21.20;47.30;;;;;;5048234;28;20021;-47
2022/09/26 02:50:28;;;;;;;1.48;0.70;;;21.20;47.30;;;;;;5048586;28;20051;-47
2022/09/26 02:53:10;;;;;;;1.00;0.70;;;21.20;47.30;;;;;;5050471;28;20395;-49
2022/09/26 02:56:22;;;;;;;0.77;0.60;;;21.10;47.20;;;;;;5048934;28;20029;-47
2022/09/26 02:58:58;;;;;;;7.75;1.25;;;21.20;47.20;;;;;;5044685;28;20036;-48
2022/09/26 03:01:55;;;;;;;1.00;0.60;;;21.20;47.20;;;;;;5048430;28;20041;-52
2022/09/26 03:04:47;;;;;;;1.02;0.50;;;21.10;47.70;;;;;;5036639;28;20040;-50
2022/09/26 03:07:37;;;;;;;1.50;0.52;;;21.10;47.10;;;;;;5035894;28;20125;-50
2022/09/26 03:10:07;;;;;;;0.80;0.50;;;21.20;47.10;;;;;;5045890;28;20136;-48
2022/09/26 03:12:35;;;;;;;2.65;0.60;;;21.20;47.10;;;;;;5048454;28;20029;-51
2022/09/26 03:15:03;;;;;;;0.93;0.68;;;21.20;47.10;;;;;;5033068;28;20049;-50
2022/09/26 03:17:33;;;;;;;3.00;0.85;;;21.10;47.00;;;;;;5046512;28;20033;-50
2022/09/26 03:20:13;;;;;;;1.00;0.52;;;21.10;47.00;;;;;;5042869;28;20440;-50
2022/09/26 03:22:41;;;;;;;3.28;0.70;;;21.20;47.00;;;;;;5045788;28;20464;-48
2022/09/26 03:25:12;;;;;;;4.35;0.70;;;21.10;47.00;;;;;;5075448;28;20123;-47
2022/09/26 03:27:45;;;;;;;1.77;0.70;;;21.10;47.00;;;;;;5048808;28;20091;-50
2022/09/26 03:30:14;;;;;;;1.77;0.70;;;21.10;47.00;;;;;;5059548;28;20053;-49
2022/09/26 03:32:49;;;;;;;0.85;0.60;;;21.20;47.10;;;;;;5041162;28;20025;-50
2022/09/26 03:35:15;;;;;;;1.92;0.70;;;21.10;47.00;;;;;;5048355;28;20025;-50
2022/09/26 03:37:42;;;;;;;1.80;0.80;;;21.10;47.00;;;;;;5033064;28;20043;-54
2022/09/26 03:40:10;;;;;;;1.00;0.50;;;21.10;47.00;;;;;;5049571;28;20036;-50
2022/09/26 03:43:02;;;;;;;1.83;0.73;;;21.10;47.00;;;;;;5048352;28;20033;-51
2022/09/26 03:45:29;;;;;;;1.33;0.70;;;21.10;47.00;;;;;;5046494;28;20029;-48
2022/09/26 03:48:05;;;;;;;1.35;0.60;;;21.10;47.00;;;;;;5038307;28;20447;-50
2022/09/26 03:50:34;;;;;;;0.90;0.50;;;21.10;47.00;;;;;;5030580;28;20107;-47
2022/09/26 03:53:00;;;;;;;1.13;0.77;;;21.10;47.00;;;;;;5048589;28;20039;-46
2022/09/26 03:55:27;;;;;;;0.95;0.50;;;21.10;47.00;;;;;;5045917;28;20405;-49
2022/09/26 03:57:53;;;;;;;2.42;0.85;;;21.10;47.00;;;;;;5032733;28;20021;-49
2022/09/26 04:00:29;;;;;;;1.48;0.50;;;21.10;47.00;;;;;;5041881;28;20036;-49
2022/09/26 04:02:55;;;;;;;0.80;0.43;;;21.10;47.00;;;;;;5043822;28;20024;-51
2022/09/26 04:05:35;;;;;;;0.55;0.40;;;21.10;47.00;;;;;;5042402;28;20071;-50
2022/09/26 04:08:01;;;;;;;0.75;0.50;;;21.10;47.00;;;;;;5042165;28;20037;-51
2022/09/26 04:10:28;;;;;;;1.52;0.60;;;21.10;47.00;;;;;;5037639;28;20050;-47
2022/09/26 04:12:55;;;;;;;0.82;0.65;;;21.10;46.90;;;;;;5045531;28;21457;-49
2022/09/26 04:15:23;;;;;;;1.20;0.65;;;21.10;46.90;;;;;;5048054;28;20078;-49
2022/09/26 04:17:55;;;;;;;2.83;0.85;;;21.10;46.90;;;;;;5046813;28;20033;-48
2022/09/26 04:20:23;;;;;;;1.13;0.60;;;21.10;46.90;;;;;;5039243;28;20044;-52
2022/09/26 04:22:49;;;;;;;2.42;0.75;;;21.10;46.90;;;;;;5036251;28;20083;-51
2022/09/26 04:25:15;;;;;;;0.60;0.50;;;21.10;46.90;;;;;;5037360;28;20026;-50
2022/09/26 04:27:41;;;;;;;1.45;0.50;;;21.00;46.80;;;;;;5047953;28;20040;-50
2022/09/26 04:30:08;;;;;;;0.93;0.50;;;21.10;46.80;;;;;;5047684;28;20117;-51
2022/09/26 04:32:41;;;;;;;1.20;0.60;;;21.10;46.80;;;;;;5061069;28;20026;-53
2022/09/26 04:35:33;;;;;;;1.10;0.45;;;21.10;46.80;;;;;;5042042;28;20049;-52
2022/09/26 04:37:59;;;;;;;1.25;0.50;;;21.10;46.70;;;;;;5046246;28;20040;-54
2022/09/26 04:40:26;;;;;;;1.42;0.80;;;21.00;46.70;;;;;;5046860;28;20086;-51
2022/09/26 04:43:01;;;;;;;1.45;0.43;;;21.10;46.70;;;;;;5027220;28;20333;-50
2022/09/26 04:45:27;;;;;;;2.08;0.60;;;21.00;46.70;;;;;;5048164;28;20035;-47
2022/09/26 04:47:52;;;;;;;0.95;0.50;;;21.00;46.70;;;;;;5047138;28;20112;-46
2022/09/26 04:50:41;;;;;;;1.17;0.50;;;21.00;46.60;;;;;;5047517;28;20057;-51
2022/09/26 04:53:11;;;;;;;1.00;0.47;;;21.00;46.60;;;;;;5043776;28;20021;-49
2022/09/26 04:56:16;;;;;;;0.75;0.40;;;21.00;46.60;;;;;;5006347;28;20042;-51
2022/09/26 04:58:43;;;;;;;1.70;0.70;;;21.00;46.70;;;;;;5016867;28;20030;-51
2022/09/26 05:01:12;;;;;;;1.10;0.68;;;21.00;46.60;;;;;;5018703;28;20820;-54
2022/09/26 05:04:04;;;;;;;1.30;0.50;;;21.00;46.60;;;;;;5042992;28;20044;-52
2022/09/26 05:06:32;;;;;;;1.80;0.50;;;21.00;46.60;;;;;;5045788;28;20032;-48
2022/09/26 05:09:00;;;;;;;1.25;0.60;;;21.00;46.60;;;;;;5041168;28;20124;-50
2022/09/26 05:11:38;;;;;;;0.70;0.47;;;21.00;46.50;;;;;;5044869;28;20090;-50
2022/09/26 05:14:07;;;;;;;1.38;0.60;;;21.00;46.50;;;;;;5042651;28;20492;-53
2022/09/26 05:16:33;;;;;;;0.80;0.52;;;21.00;46.50;;;;;;5040047;28;20459;-53
2022/09/26 05:19:00;;;;;;;0.88;0.47;;;21.00;46.50;;;;;;5040306;28;20092;-53
2022/09/26 05:21:26;;;;;;;1.13;0.63;;;21.00;46.40;;;;;;5044062;28;20037;-51
2022/09/26 05:26:50;;;;;;;1.50;0.60;;;21.00;46.30;;;;;;5037056;28;20102;-54
2022/09/26 05:29:19;;;;;;;0.73;0.60;;;21.00;46.30;;;;;;5047405;28;20029;-48
2022/09/26 05:31:52;;;;;;;1.27;0.55;;;21.00;46.30;;;;;;5045361;28;20037;-51
2022/09/26 05:34:20;;;;;;;2.13;0.60;;;20.90;46.20;;;;;;5033079;28;20141;-48
2022/09/26 05:36:46;;;;;;;1.30;0.40;;;21.00;46.30;;;;;;5044249;28;20408;-48
2022/09/26 05:41:58;;;;;;;0.95;0.50;;;21.00;46.30;;;;;;5044026;28;20044;-53
2022/09/26 05:44:24;;;;;;;1.38;0.55;;;20.90;46.20;;;;;;5047346;28;20021;-47
2022/09/26 05:46:51;;;;;;;1.25;0.60;;;21.00;46.30;;;;;;5042118;28;20111;-51
2022/09/26 05:49:16;;;;;;;1.63;0.70;;;21.00;46.30;;;;;;5042873;28;20025;-48
2022/09/26 05:51:42;;;;;;;1.63;0.65;;;20.90;46.30;;;;;;5047265;28;20035;-50
2022/09/26 05:54:11;;;;;;;1.90;0.50;;;20.90;46.20;;;;;;5043779;28;20024;-50
2022/09/26 05:56:37;;;;;;;0.82;0.50;;;20.90;46.30;;;;;;5042119;28;20087;-53
2022/09/26 05:59:22;;;;;;;1.15;0.57;;;20.90;46.20;;;;;;5046710;28;20079;-51
2022/09/26 06:02:07;;;;;;;2.17;0.75;;;21.00;46.40;;;;;;5045789;28;20052;-53
2022/09/26 06:04:52;;;;;;;3.78;0.68;;;20.90;46.40;;;;;;5047982;28;20393;-49
2022/09/26 06:07:36;;;;;;;1.10;0.60;;;20.90;46.50;;;;;;5045579;28;20064;-56
2022/09/26 06:10:06;;;;;;;1.17;0.60;;;20.90;46.50;;;;;;5039451;28;20479;-51
2022/09/26 06:12:38;;;;;;;1.08;0.70;;;20.90;46.50;;;;;;5044188;28;20084;-54
2022/09/26 06:15:05;;;;;;;2.60;0.77;;;20.90;46.50;;;;;;5043566;28;20364;-50
2022/09/26 06:17:31;;;;;;;1.98;0.60;;;20.90;46.50;;;;;;5040850;28;20032;-51
2022/09/26 06:19:57;;;;;;;1.70;0.52;;;20.90;46.50;;;;;;5045556;28;20104;-52
2022/09/26 06:22:23;;;;;;;0.80;0.60;;;20.90;46.50;;;;;;5042982;28;20140;-53
2022/09/26 06:24:52;;;;;;;1.33;0.60;;;20.90;46.60;;;;;;5038494;28;20429;-48
2022/09/26 06:27:19;;;;;;;3.30;0.80;;;20.90;46.60;;;;;;5043190;28;20451;-50
2022/09/26 06:29:45;;;;;;;1.48;0.63;;;20.90;46.60;;;;;;5041970;28;20025;-50
2022/09/26 06:32:12;;;;;;;3.25;1.48;;;20.90;46.60;;;;;;5038599;28;20041;-51
2022/09/26 06:34:59;;;;;;;1.77;0.80;;;20.90;46.70;;;;;;5034277;28;20116;-51
2022/09/26 06:37:46;;;;;;;2.03;0.85;;;20.90;46.70;;;;;;5033696;28;20036;-50
2022/09/26 06:40:13;;;;;;;3.95;0.98;;;20.90;46.70;;;;;;5038301;28;20030;-55
2022/09/26 06:42:39;;;;;;;2.22;0.95;;;20.90;46.70;;;;;;5033955;28;20041;-52
2022/09/26 06:45:23;;;;;;;3.72;1.00;;;20.90;46.70;;;;;;5027379;28;20026;-53
2022/09/26 06:48:07;;;;;;;3.53;0.95;;;20.90;46.70;;;;;;5044285;28;20063;-52
2022/09/26 06:50:53;;;;;;;2.60;0.98;;;20.90;46.70;;;;;;5039150;28;20099;-49
2022/09/26 06:53:19;;;;;;;3.17;1.17;;;20.90;46.70;;;;;;5023324;28;20025;-48
2022/09/26 06:55:46;;;;;;;3.33;1.02;;;20.90;46.70;;;;;;5042799;28;20037;-51
2022/09/26 06:58:12;;;;;;;2.78;0.88;;;20.90;46.70;;;;;;5039152;28;20432;-51
2022/09/26 07:00:55;;;;;;;2.90;1.00;;;20.90;46.80;;;;;;5031475;28;20029;-53
2022/09/26 07:03:46;;;;;;;3.25;1.10;;;20.90;46.90;;;;;;5045993;28;20403;-48
2022/09/26 07:06:25;;;;;;;3.53;1.35;;;20.90;46.90;;;;;;5041459;28;20025;-53
2022/09/26 07:08:53;;;;;;;3.80;1.20;;;20.90;46.80;;;;;;5045760;28;20053;-53
2022/09/26 07:11:28;;;;;;;4.05;1.38;;;20.90;46.80;;;;;;5041235;28;20033;-47
2022/09/26 07:13:54;;;;;;;3.38;1.20;;;20.90;46.80;;;;;;5047281;28;20532;-52
2022/09/26 07:16:21;;;;;;;3.45;1.20;;;20.90;46.80;;;;;;5038963;28;20116;-50
2022/09/26 07:19:02;;;;;;;3.22;1.38;;;20.90;46.80;;;;;;5037008;28;20075;-51
2022/09/26 07:21:37;;;;;;;3.42;1.65;;;20.90;46.80;;;;;;5040813;28;20063;-50
2022/09/26 07:24:22;;;;;;;4.63;1.60;;;20.90;46.70;;;;;;5040630;28;20030;-47
2022/09/26 07:26:48;;;;;;;3.60;1.70;;;20.90;46.80;;;;;;5045297;28;20044;-48
2022/09/26 07:29:13;;;;;;;5.25;1.92;;;20.90;46.80;;;;;;5048127;28;20366;-51
2022/09/26 07:31:39;;;;;;;3.38;1.42;;;20.90;46.80;;;;;;5048887;28;20025;-51
2022/09/26 07:34:07;;;;;;;5.40;1.67;;;20.90;46.80;;;;;;5047593;28;20048;-52
2022/09/26 07:36:34;;;;;;;4.45;1.60;;;20.90;46.80;;;;;;5044909;28;20030;-55
2022/09/26 07:39:00;;;;;;;3.63;1.38;;;20.90;46.80;;;;;;5048943;28;20078;-52
2022/09/26 07:41:29;;;;;;;6.07;1.63;;;20.90;46.80;;;;;;5043302;28;20457;-53
2022/09/26 07:43:57;;;;;;;2.83;1.13;;;20.90;46.70;;;;;;5043549;28;20068;-49
2022/09/26 07:52:10;;;;;;;5.72;1.50;;;20.90;46.70;;;;;;5035241;28;20045;-52
2022/09/26 07:55:02;;;;;;;4.25;1.40;;;20.90;46.80;;;;;;5046760;28;20045;-48
2022/09/26 07:57:48;;;;;;;3.90;1.40;;;20.90;46.80;;;;;;5046788;28;20044;-51
2022/09/26 08:00:41;;;;;;;4.53;1.50;;;20.90;46.70;;;;;;5040441;28;20051;-50
2022/09/26 08:03:28;;;;;;;3.53;1.35;;;20.90;46.70;;;;;;5049533;28;20120;-49
2022/09/26 08:05:58;;;;;;;3.10;1.50;;;20.90;46.70;;;;;;5038343;28;20021;-50
2022/09/26 08:08:24;;;;;;;3.75;1.40;;;20.90;46.70;;;;;;5041508;28;20033;-48
2022/09/26 08:11:15;;;;;;;2.90;1.10;;;20.90;46.70;;;;;;5039000;28;20067;-53
2022/09/26 08:13:53;;;;;;;4.32;1.40;;;20.90;46.70;;;;;;5048138;28;20033;-49
2022/09/26 08:16:38;;;;;;;6.18;1.35;;;20.90;46.70;;;;;;5044776;28;20021;-49
2022/09/26 08:19:06;;;;;;;3.63;1.30;;;20.90;46.70;;;;;;5043664;28;20021;-54
2022/09/26 08:21:32;;;;;;;3.88;1.60;;;20.90;46.80;;;;;;5040787;28;20036;-49
2022/09/26 08:23:59;;;;;;;3.67;1.20;;;20.90;46.70;;;;;;5048025;28;20032;-57
2022/09/26 08:26:31;;;;;;;2.42;1.30;;;20.90;46.70;;;;;;5051836;28;20126;-50
2022/09/26 08:29:11;;;;;;;4.30;1.42;;;20.90;46.80;;;;;;5041697;28;20017;-52
2022/09/26 08:31:38;;;;;;;3.47;1.38;;;20.90;46.80;;;;;;5035431;28;20029;-47
2022/09/26 08:34:05;;;;;;;3.65;1.45;;;20.90;46.80;;;;;;5036156;28;20132;-48
2022/09/26 08:36:35;;;;;;;4.85;1.50;;;20.90;46.80;;;;;;5055435;28;20033;-53
2022/09/26 08:39:24;;;;;;;4.55;1.40;;;20.90;46.80;;;;;;5055380;28;20037;-53
2022/09/26 08:41:53;;;;;;;1.85;1.15;;;20.90;46.80;;;;;;5040330;28;20535;-53
2022/09/26 08:44:51;;;;;;;2.38;1.05;;;20.90;46.80;;;;;;5035758;28;20033;-51
2022/09/26 08:47:52;;;;;;;3.17;1.40;;;20.90;46.70;;;;;;5035470;28;20034;-51
2022/09/26 08:51:29;;;;;;;2.25;1.10;;;20.90;46.80;;;;;;5052558;28;20056;-51
2022/09/26 08:54:02;;;;;;;2.60;0.90;;;20.90;46.70;;;;;;5002699;28;20190;-49
2022/09/26 08:56:45;;;;;;;2.30;1.10;;;20.90;46.80;;;;;;5060932;28;20055;-49
2022/09/26 08:59:27;;;;;;;3.08;1.23;;;20.90;46.80;;;;;;5055175;28;20037;-53
2022/09/26 09:01:57;;;;;;;4.07;1.38;;;20.90;46.80;;;;;;5039080;28;20124;-48
2022/09/26 09:04:42;;;;;;;2.58;1.10;;;20.90;46.80;;;;;;5036039;28;20111;-47
2022/09/26 09:07:34;;;;;;;2.97;1.08;;;20.90;46.80;;;;;;5034611;28;20033;-50
2022/09/26 09:10:06;;;;;;;3.70;1.20;;;20.90;46.80;;;;;;5047618;28;20080;-49
2022/09/26 09:13:22;;;;;;;3.78;1.15;;;20.90;46.80;;;;;;5054579;28;20032;-46
2022/09/26 09:16:24;;;;;;;3.25;1.00;;;20.90;46.80;;;;;;5056093;28;20047;-48
2022/09/26 09:19:11;;;;;;;2.63;1.00;;;20.90;46.90;;;;;;5034312;28;20168;-52
2022/09/26 09:22:24;;;;;;;3.55;1.17;;;20.90;46.90;;;;;;5035867;28;20064;-52
2022/09/26 09:25:08;;;;;;;2.92;1.30;;;20.90;46.90;;;;;;5034075;28;20037;-48
2022/09/26 09:27:52;;;;;;;2.50;0.90;;;20.90;47.00;;;;;;5015575;28;20036;-50
2022/09/26 09:30:27;;;;;;;2.65;1.00;;;20.90;47.00;;;;;;5050226;28;20068;-53
2022/09/26 09:33:20;;;;;;;3.28;0.93;;;20.90;47.10;;;;;;5035387;28;20081;-48
2022/09/26 09:36:30;;;;;;;3.30;1.00;;;20.90;47.10;;;;;;5034437;28;20353;-49
2022/09/26 09:39:32;;;;;;;3.97;1.17;;;20.90;47.20;;;;;;5035445;28;20044;-49
2022/09/26 09:42:42;;;;;;;3.03;1.05;;;20.90;47.20;;;;;;5033472;28;20049;-53
2022/09/26 09:45:24;;;;;;;2.03;0.80;;;20.80;47.20;;;;;;5034471;28;20056;-49
2022/09/26 09:47:50;;;;;;;2.00;0.90;;;20.90;47.30;;;;;;5050948;28;20380;-51
2022/09/26 09:50:29;;;;;;;4.05;1.05;;;20.80;47.30;;;;;;5050309;28;20028;-51
2022/09/26 09:53:26;;;;;;;3.08;1.10;;;20.90;47.40;;;;;;5034152;28;20091;-47
2022/09/26 09:56:15;;;;;;;1.65;0.93;;;20.90;47.50;;;;;;5034182;28;20464;-49
2022/09/26 09:58:56;;;;;;;2.85;0.80;;;20.90;47.50;;;;;;5053641;28;20037;-56
2022/09/26 10:01:29;;;;;;;2.75;0.88;;;20.90;47.60;;;;;;5053805;28;20060;-52
2022/09/26 10:04:22;;;;;;;2.53;1.05;;;20.90;47.70;;;;;;5053968;28;20345;-50
2022/09/26 10:06:49;;;;;;;1.02;0.57;;;20.90;47.70;;;;;;5034032;28;20107;-50
2022/09/26 10:09:28;;;;;;;2.75;1.10;;;20.90;47.80;;;;;;5033287;28;20132;-53
2022/09/26 10:12:19;;;;;;;2.10;0.82;;;20.90;47.80;;;;;;5034322;28;20107;-50
2022/09/26 10:15:25;;;;;;;1.08;0.60;;;20.90;48.40;;;;;;5034762;28;20080;-47
2022/09/26 10:18:14;;;;;;;2.10;0.90;;;20.90;47.80;;;;;;5034580;28;20199;-52
2022/09/26 10:21:07;;;;;;;1.83;0.90;;;20.90;47.90;;;;;;5030329;28;20030;-50
2022/09/26 10:23:40;;;;;;;2.35;0.98;;;20.90;47.90;;;;;;5036004;28;20041;-50
2022/09/26 10:26:12;;;;;;;2.30;0.90;;;20.90;47.90;;;;;;5033688;28;20029;-50
2022/09/26 10:28:56;;;;;;;1.63;0.75;;;20.90;47.90;;;;;;5033547;28;20036;-50
2022/09/26 10:31:24;;;;;;;;;;;20.90;48.00;;;;;;5034021;28;20086;-49
2022/09/26 10:34:28;;;;;;;1.73;0.80;;;20.90;48.00;;;;;;5042722;28;19992;-53
2022/09/26 10:36:55;;;;;;;0.88;0.60;;;20.90;48.10;;;;;;5039647;28;20033;-52
2022/09/26 10:42:15;;;;;;;3.20;1.13;;;20.90;48.10;;;;;;5035127;28;20135;-53
2022/09/26 10:44:42;;;;;;;2.40;0.70;;;20.90;48.20;;;;;;5037666;28;20352;-52
2022/09/26 10:47:29;;;;;;;1.98;0.80;;;20.90;48.20;;;;;;5032801;28;20120;-55
2022/09/26 10:50:28;;;;;;;1.92;0.80;;;20.90;48.30;;;;;;5031928;28;20372;-57
2022/09/26 10:53:16;;;;;;;1.77;0.70;;;20.90;48.50;;;;;;5040812;28;20372;-58
2022/09/26 10:55:55;;;;;;;3.03;1.02;;;20.90;48.80;;;;;;5037216;28;20087;-56
2022/09/26 10:58:26;;;;;;;2.25;0.80;;;20.90;49.00;;;;;;5045021;28;20025;-63
2022/09/26 11:00:59;;;;;;;1.15;0.80;;;21.00;49.20;;;;;;5041951;28;20350;-61
2022/09/26 11:03:36;;;;;;;1.13;0.60;;;21.10;49.30;;;;;;5041472;28;20059;-61
2022/09/26 11:06:39;;;;;;;3.08;1.00;;;21.20;49.30;;;;;;5033380;28;20034;-66
2022/09/26 11:09:31;;;;;;;1.92;1.10;;;21.40;49.20;;;;;;5040211;28;20437;-56
2022/09/26 11:12:38;;;;;;;2.28;0.90;;;21.50;49.00;;;;;;5049989;28;20041;-60
2022/09/26 11:15:09;;;;;;;;;;;21.60;48.90;;;;;;5039069;28;20125;-58
2022/09/26 11:17:50;;;;;;;3.08;0.90;;;21.70;48.80;;;;;;5043777;28;20010;-57
2022/09/26 11:20:35;;;;;;;3.58;0.80;;;21.80;48.60;;;;;;5044440;28;20032;-56
2022/09/26 11:23:26;;;;;;;2.58;0.70;;;21.90;48.30;;;;;;5048367;28;20072;-54
2022/09/26 11:26:02;;;;;;;3.40;0.90;;;22.00;48.10;;;;;;5043720;28;20029;-57
2022/09/26 11:28:35;;;;;;;1.25;0.65;;;22.10;47.90;;;;;;5040995;28;20029;-60
2022/09/26 11:31:33;;;;;;;4.80;0.82;;;22.20;47.80;;;;;;5038558;28;20040;-59
2022/09/26 11:34:30;;;;;;;2.97;0.73;;;22.30;47.60;;;;;;5038709;28;20029;-58
2022/09/26 11:37:42;;;;;;;1.75;0.70;;;22.40;47.50;;;;;;5034329;28;20029;-59
2022/09/26 11:40:18;;;;;;;1.40;0.70;;;22.50;47.20;;;;;;5030315;28;20365;-58
2022/09/26 11:43:12;;;;;;;1.42;0.60;;;22.50;47.00;;;;;;5035501;28;20737;-59
2022/09/26 11:46:01;;;;;;;1.65;0.70;;;22.60;47.10;;;;;;5051932;28;20091;-59
2022/09/26 11:49:16;;;;;;;1.85;0.80;;;22.60;47.20;;;;;;5031401;28;20297;-58
2022/09/26 11:52:33;;;;;;;2.60;0.68;;;22.70;47.00;;;;;;5030657;28;20112;-59
2022/09/26 11:55:48;;;;;;;1.20;0.70;;;22.70;46.90;;;;;;5053402;28;20112;-56
2022/09/26 11:58:48;;;;;;;0.95;0.35;;;22.80;46.90;;;;;;5033773;28;20116;-57
2022/09/26 12:01:26;;;;;;;2.08;0.70;;;22.80;46.80;;;;;;5027750;28;20128;-56
2022/09/26 12:04:43;;;;;;;1.60;0.57;;;22.80;46.60;;;;;;5036148;28;20038;-58
2022/09/26 12:07:47;;;;;;;2.50;0.50;;;22.90;46.60;;;;;;5026326;28;20116;-59
2022/09/26 12:10:40;;;;;;;1.08;0.60;;;22.90;46.50;;;;;;5032727;28;20037;-59
2022/09/26 12:13:33;;;;;;;1.77;0.68;;;23.00;46.40;;;;;;5039354;28;20038;-60
2022/09/26 12:16:20;;;;;;;1.42;0.60;;;23.00;46.30;;;;;;5036456;28;20037;-55
2022/09/26 12:19:06;;;;;;;1.70;0.60;;;23.10;46.10;;;;;;5032905;28;20040;-56
2022/09/26 12:24:54;;;;;;;1.17;0.60;;;23.20;45.80;;;;;;5038643;28;20033;-55
2022/09/26 12:27:43;;;;;;;1.08;0.50;;;23.30;45.90;;;;;;5039425;28;20079;-59
2022/09/26 12:30:19;;;;;;;1.20;0.50;;;23.30;45.90;;;;;;5034592;28;20483;-55
2022/09/26 12:32:47;;;;;;;1.75;0.70;;;23.30;45.90;;;;;;5041306;28;20348;-57
2022/09/26 12:35:37;;;;;;;0.82;0.50;;;23.30;45.90;;;;;;5040146;28;20020;-58
2022/09/26 12:38:27;;;;;;;1.25;0.70;;;23.30;45.80;;;;;;5039045;28;21198;-59
2022/09/26 12:41:15;;;;;;;2.45;0.70;;;23.40;45.80;;;;;;5032286;28;20045;-55
2022/09/26 12:44:03;;;;;;;1.17;0.65;;;23.40;45.70;;;;;;5036026;28;20074;-56
2022/09/26 12:47:08;;;;;;;1.00;0.50;;;23.40;45.60;;;;;;5038561;28;20138;-59
2022/09/26 12:49:46;;;;;;;1.20;0.68;;;23.40;45.50;;;;;;5030428;28;20037;-58
2022/09/26 12:52:12;;;;;;;3.78;0.60;;;23.40;45.60;;;;;;5033950;28;20052;-60
2022/09/26 12:54:42;;;;;;;1.20;0.60;;;23.40;46.30;;;;;;5040790;28;20461;-59
2022/09/26 12:57:24;;;;;;;1.00;0.60;;;23.40;45.80;;;;;;5033695;28;20084;-54
2022/09/26 13:00:09;;;;;;;1.20;0.50;;;23.50;45.90;;;;;;5037521;28;20053;-58
2022/09/26 13:02:54;;;;;;;1.08;0.45;;;23.50;45.90;;;;;;5036617;28;20444;-58
2022/09/26 13:05:40;;;;;;;;;;;23.50;45.90;;;;;;5034372;28;20041;-57
2022/09/26 13:08:18;;;;;;;1.92;0.60;;;23.50;45.90;;;;;;5030882;28;20007;-59
2022/09/26 13:11:09;;;;;;;1.58;0.63;;;23.60;45.70;;;;;;5034165;28;20050;-60
2022/09/26 13:14:06;;;;;;;0.57;0.43;;;23.50;45.50;;;;;;5035521;28;20103;-58
2022/09/26 13:16:49;;;;;;;1.60;0.50;;;23.50;45.40;;;;;;5039550;28;20033;-57
2022/09/26 13:19:30;;;;;;;2.35;0.50;;;23.60;45.40;;;;;;5041023;28;20048;-57
2022/09/26 13:22:20;;;;;;;0.70;0.43;;;23.50;45.30;;;;;;5038142;28;20045;-54
2022/09/26 13:24:57;;;;;;;0.95;0.43;;;23.60;45.20;;;;;;5043787;28;20111;-52
2022/09/26 13:27:25;;;;;;;1.50;0.45;;;23.50;45.20;;;;;;5041170;28;20448;-56
2022/09/26 13:30:06;;;;;;;0.70;0.40;;;23.50;45.20;;;;;;5043897;28;20090;-56
2022/09/26 13:32:59;;;;;;;0.68;0.30;;;23.50;45.10;;;;;;5042788;28;20048;-56
2022/09/26 13:35:28;;;;;;;1.05;0.57;;;23.50;45.10;;;;;;5034350;28;20049;-57
2022/09/26 13:38:20;;;;;;;0.80;0.40;;;23.50;45.20;;;;;;5039967;28;20044;-54
2022/09/26 13:41:04;;;;;;;0.43;0.30;;;23.50;45.10;;;;;;5038655;28;20779;-56
2022/09/26 13:43:55;;;;;;;0.88;0.38;;;23.40;45.10;;;;;;5037082;28;20026;-56
2022/09/26 13:47:00;;;;;;;0.88;0.28;;;23.40;45.20;;;;;;5037502;28;20044;-59
2022/09/26 13:49:50;;;;;;;0.75;0.40;;;23.40;45.20;;;;;;5048718;28;20033;-59
2022/09/26 13:52:15;;;;;;;0.45;0.32;;;23.40;45.20;;;;;;5042028;28;20041;-58
2022/09/26 13:54:56;;;;;;;0.75;0.40;;;23.40;45.30;;;;;;5045940;28;20113;-58
2022/09/26 13:57:36;;;;;;;0.93;0.40;;;23.30;45.20;;;;;;5033500;28;20044;-60
2022/09/26 14:00:29;;;;;;;0.25;0.25;;;23.30;45.30;;;;;;5031991;28;20394;-58
2022/09/26 14:03:15;;;;;;;0.50;0.40;;;23.30;45.30;;;;;;5033149;28;20465;-57